sensor_id;sensor_type;location;lat;lon;timestamp;P1;durP1;ratioP1;P2;durP2;ratioP2
46551;SDS011;32278;51.810;4.712;2023-08-30T00:00:56;10.23;;;5.80;;
46551;SDS011;32278;51.810;4.712;2023-08-30T00:03:22;9.50;;;6.07;;
46551;SDS011;32278;51.810;4.712;2023-08-30T00:05:48;9.65;;;6.55;;
46551;SDS011;32278;51.810;4.712;2023-08-30T00:08:14;9.45;;;6.63;;
46551;SDS011;32278;51.810;4.712;2023-08-30T00:10:47;12.10;;;6.70;;
46551;SDS011;32278;51.810;4.712;2023-08-30T00:13:13;10.68;;;6.20;;
46551;SDS011;32278;51.810;4.712;2023-08-30T00:15:39;10.57;;;6.93;;
46551;SDS011;32278;51.810;4.712;2023-08-30T00:18:05;8.70;;;6.47;;
46551;SDS011;32278;51.810;4.712;2023-08-30T00:20:31;12.38;;;7.13;;
46551;SDS011;32278;51.810;4.712;2023-08-30T00:22:57;10.48;;;6.57;;
46551;SDS011;32278;51.810;4.712;2023-08-30T00:25:23;11.82;;;7.50;;
46551;SDS011;32278;51.810;4.712;2023-08-30T00:27:49;12.07;;;6.50;;
46551;SDS011;32278;51.810;4.712;2023-08-30T00:30:15;10.70;;;7.03;;
46551;SDS011;32278;51.810;4.712;2023-08-30T00:32:41;9.75;;;6.75;;
46551;SDS011;32278;51.810;4.712;2023-08-30T00:35:07;11.13;;;7.63;;
46551;SDS011;32278;51.810;4.712;2023-08-30T00:37:33;10.80;;;6.85;;
46551;SDS011;32278;51.810;4.712;2023-08-30T00:39:59;11.95;;;7.78;;
46551;SDS011;32278;51.810;4.712;2023-08-30T00:42:25;14.70;;;7.72;;
46551;SDS011;32278;51.810;4.712;2023-08-30T00:44:52;11.77;;;7.13;;
46551;SDS011;32278;51.810;4.712;2023-08-30T00:47:18;10.98;;;7.40;;
46551;SDS011;32278;51.810;4.712;2023-08-30T00:49:44;13.02;;;7.25;;
46551;SDS011;32278;51.810;4.712;2023-08-30T00:52:10;12.50;;;8.40;;
46551;SDS011;32278;51.810;4.712;2023-08-30T00:54:36;13.23;;;8.02;;
46551;SDS011;32278;51.810;4.712;2023-08-30T00:57:02;13.13;;;8.88;;
46551;SDS011;32278;51.810;4.712;2023-08-30T00:59:30;15.27;;;8.57;;
46551;SDS011;32278;51.810;4.712;2023-08-30T01:01:57;13.43;;;8.13;;
46551;SDS011;32278;51.810;4.712;2023-08-30T01:04:23;12.55;;;8.00;;
46551;SDS011;32278;51.810;4.712;2023-08-30T01:06:50;15.02;;;8.85;;
46551;SDS011;32278;51.810;4.712;2023-08-30T01:09:17;11.25;;;8.32;;
46551;SDS011;32278;51.810;4.712;2023-08-30T01:14:11;13.52;;;8.32;;
46551;SDS011;32278;51.810;4.712;2023-08-30T01:16:38;13.57;;;8.20;;
46551;SDS011;32278;51.810;4.712;2023-08-30T01:19:14;12.20;;;8.52;;
46551;SDS011;32278;51.810;4.712;2023-08-30T01:22:00;12.50;;;9.30;;
46551;SDS011;32278;51.810;4.712;2023-08-30T01:24:32;17.88;;;9.05;;
46551;SDS011;32278;51.810;4.712;2023-08-30T01:27:09;14.10;;;8.48;;
46551;SDS011;32278;51.810;4.712;2023-08-30T01:29:36;14.07;;;9.07;;
46551;SDS011;32278;51.810;4.712;2023-08-30T01:32:03;13.65;;;9.15;;
46551;SDS011;32278;51.810;4.712;2023-08-30T01:34:30;15.07;;;9.52;;
46551;SDS011;32278;51.810;4.712;2023-08-30T01:36:56;10.32;;;8.15;;
46551;SDS011;32278;51.810;4.712;2023-08-30T01:39:23;13.02;;;8.68;;
46551;SDS011;32278;51.810;4.712;2023-08-30T01:41:49;16.60;;;8.93;;
46551;SDS011;32278;51.810;4.712;2023-08-30T01:44:17;13.40;;;8.32;;
46551;SDS011;32278;51.810;4.712;2023-08-30T01:46:43;16.02;;;9.10;;
46551;SDS011;32278;51.810;4.712;2023-08-30T01:49:11;14.88;;;9.55;;
46551;SDS011;32278;51.810;4.712;2023-08-30T01:51:37;14.15;;;9.68;;
46551;SDS011;32278;51.810;4.712;2023-08-30T01:54:04;15.30;;;9.48;;
46551;SDS011;32278;51.810;4.712;2023-08-30T01:56:30;13.15;;;9.15;;
46551;SDS011;32278;51.810;4.712;2023-08-30T01:58:56;14.20;;;9.32;;
46551;SDS011;32278;51.810;4.712;2023-08-30T02:01:22;17.27;;;9.32;;
46551;SDS011;32278;51.810;4.712;2023-08-30T02:03:48;14.38;;;9.27;;
46551;SDS011;32278;51.810;4.712;2023-08-30T02:06:31;11.50;;;8.82;;
46551;SDS011;32278;51.810;4.712;2023-08-30T02:09:01;14.45;;;8.90;;
46551;SDS011;32278;51.810;4.712;2023-08-30T02:11:29;12.88;;;9.43;;
46551;SDS011;32278;51.810;4.712;2023-08-30T02:13:57;13.48;;;9.50;;
46551;SDS011;32278;51.810;4.712;2023-08-30T02:16:24;15.68;;;10.30;;
46551;SDS011;32278;51.810;4.712;2023-08-30T02:18:51;13.15;;;8.57;;
46551;SDS011;32278;51.810;4.712;2023-08-30T02:21:17;15.30;;;10.00;;
46551;SDS011;32278;51.810;4.712;2023-08-30T02:23:44;13.68;;;9.10;;
46551;SDS011;32278;51.810;4.712;2023-08-30T02:26:10;18.45;;;9.90;;
46551;SDS011;32278;51.810;4.712;2023-08-30T02:28:36;14.50;;;10.38;;
46551;SDS011;32278;51.810;4.712;2023-08-30T02:31:03;16.58;;;9.90;;
46551;SDS011;32278;51.810;4.712;2023-08-30T02:33:29;16.58;;;9.93;;
46551;SDS011;32278;51.810;4.712;2023-08-30T02:35:55;14.52;;;10.30;;
46551;SDS011;32278;51.810;4.712;2023-08-30T02:38:21;14.02;;;9.45;;
46551;SDS011;32278;51.810;4.712;2023-08-30T02:40:47;15.85;;;10.45;;
46551;SDS011;32278;51.810;4.712;2023-08-30T02:43:13;13.75;;;10.15;;
46551;SDS011;32278;51.810;4.712;2023-08-30T02:45:39;16.55;;;11.70;;
46551;SDS011;32278;51.810;4.712;2023-08-30T02:48:05;14.73;;;9.95;;
46551;SDS011;32278;51.810;4.712;2023-08-30T02:50:31;16.40;;;10.15;;
46551;SDS011;32278;51.810;4.712;2023-08-30T02:52:57;15.88;;;10.23;;
46551;SDS011;32278;51.810;4.712;2023-08-30T02:55:23;17.95;;;11.38;;
46551;SDS011;32278;51.810;4.712;2023-08-30T02:57:49;16.27;;;10.38;;
46551;SDS011;32278;51.810;4.712;2023-08-30T03:00:15;17.63;;;11.57;;
46551;SDS011;32278;51.810;4.712;2023-08-30T03:02:41;13.30;;;9.20;;
46551;SDS011;32278;51.810;4.712;2023-08-30T03:05:08;15.02;;;10.35;;
46551;SDS011;32278;51.810;4.712;2023-08-30T03:07:34;17.50;;;10.82;;
46551;SDS011;32278;51.810;4.712;2023-08-30T03:10:00;15.18;;;10.80;;
46551;SDS011;32278;51.810;4.712;2023-08-30T03:12:26;16.23;;;11.02;;
46551;SDS011;32278;51.810;4.712;2023-08-30T03:14:52;17.75;;;10.13;;
46551;SDS011;32278;51.810;4.712;2023-08-30T03:17:18;18.25;;;11.05;;
46551;SDS011;32278;51.810;4.712;2023-08-30T03:19:44;16.83;;;11.07;;
46551;SDS011;32278;51.810;4.712;2023-08-30T03:22:10;21.55;;;10.27;;
46551;SDS011;32278;51.810;4.712;2023-08-30T03:24:36;15.73;;;10.38;;
46551;SDS011;32278;51.810;4.712;2023-08-30T03:27:02;15.23;;;10.63;;
46551;SDS011;32278;51.810;4.712;2023-08-30T03:29:28;17.70;;;10.80;;
46551;SDS011;32278;51.810;4.712;2023-08-30T03:31:55;17.85;;;11.00;;
46551;SDS011;32278;51.810;4.712;2023-08-30T03:34:21;17.75;;;11.25;;
46551;SDS011;32278;51.810;4.712;2023-08-30T03:36:47;16.48;;;10.77;;
46551;SDS011;32278;51.810;4.712;2023-08-30T03:39:19;13.85;;;9.50;;
46551;SDS011;32278;51.810;4.712;2023-08-30T03:41:45;17.65;;;9.68;;
46551;SDS011;32278;51.810;4.712;2023-08-30T03:44:11;19.63;;;11.23;;
46551;SDS011;32278;51.810;4.712;2023-08-30T03:46:37;17.10;;;10.98;;
46551;SDS011;32278;51.810;4.712;2023-08-30T03:49:03;14.55;;;9.13;;
46551;SDS011;32278;51.810;4.712;2023-08-30T03:51:29;14.70;;;10.63;;
46551;SDS011;32278;51.810;4.712;2023-08-30T03:53:55;20.33;;;10.57;;
46551;SDS011;32278;51.810;4.712;2023-08-30T03:56:22;13.02;;;9.77;;
46551;SDS011;32278;51.810;4.712;2023-08-30T03:58:48;17.45;;;10.13;;
46551;SDS011;32278;51.810;4.712;2023-08-30T04:01:14;13.23;;;9.93;;
46551;SDS011;32278;51.810;4.712;2023-08-30T04:03:40;14.13;;;9.98;;
46551;SDS011;32278;51.810;4.712;2023-08-30T04:06:09;15.57;;;9.52;;
46551;SDS011;32278;51.810;4.712;2023-08-30T04:08:35;13.45;;;9.48;;
46551;SDS011;32278;51.810;4.712;2023-08-30T04:11:01;14.95;;;9.90;;
46551;SDS011;32278;51.810;4.712;2023-08-30T04:13:27;14.73;;;9.35;;
46551;SDS011;32278;51.810;4.712;2023-08-30T04:15:53;13.88;;;9.35;;
46551;SDS011;32278;51.810;4.712;2023-08-30T04:18:21;14.43;;;9.68;;
46551;SDS011;32278;51.810;4.712;2023-08-30T04:20:47;15.85;;;10.15;;
46551;SDS011;32278;51.810;4.712;2023-08-30T04:23:13;16.50;;;10.57;;
46551;SDS011;32278;51.810;4.712;2023-08-30T04:25:40;15.88;;;10.30;;
46551;SDS011;32278;51.810;4.712;2023-08-30T04:28:06;17.95;;;10.10;;
46551;SDS011;32278;51.810;4.712;2023-08-30T04:30:32;14.93;;;10.30;;
46551;SDS011;32278;51.810;4.712;2023-08-30T04:32:58;15.63;;;10.38;;
46551;SDS011;32278;51.810;4.712;2023-08-30T04:35:26;19.77;;;10.63;;
46551;SDS011;32278;51.810;4.712;2023-08-30T04:37:52;14.65;;;9.30;;
46551;SDS011;32278;51.810;4.712;2023-08-30T04:40:18;13.93;;;9.38;;
46551;SDS011;32278;51.810;4.712;2023-08-30T04:42:44;14.07;;;10.02;;
46551;SDS011;32278;51.810;4.712;2023-08-30T04:45:10;13.18;;;9.27;;
46551;SDS011;32278;51.810;4.712;2023-08-30T04:47:36;16.00;;;9.23;;
46551;SDS011;32278;51.810;4.712;2023-08-30T04:50:02;14.48;;;9.85;;
46551;SDS011;32278;51.810;4.712;2023-08-30T04:52:28;14.18;;;9.75;;
46551;SDS011;32278;51.810;4.712;2023-08-30T04:54:54;15.65;;;9.32;;
46551;SDS011;32278;51.810;4.712;2023-08-30T04:57:20;12.73;;;9.50;;
46551;SDS011;32278;51.810;4.712;2023-08-30T04:59:46;16.80;;;10.10;;
46551;SDS011;32278;51.810;4.712;2023-08-30T05:02:12;12.05;;;8.32;;
46551;SDS011;32278;51.810;4.712;2023-08-30T05:04:38;13.57;;;10.10;;
46551;SDS011;32278;51.810;4.712;2023-08-30T05:07:04;18.42;;;10.82;;
46551;SDS011;32278;51.810;4.712;2023-08-30T05:09:30;14.88;;;10.00;;
46551;SDS011;32278;51.810;4.712;2023-08-30T05:11:57;13.43;;;9.50;;
46551;SDS011;32278;51.810;4.712;2023-08-30T05:14:23;19.80;;;9.52;;
46551;SDS011;32278;51.810;4.712;2023-08-30T05:16:50;21.80;;;10.80;;
46551;SDS011;32278;51.810;4.712;2023-08-30T05:19:16;16.73;;;10.48;;
46551;SDS011;32278;51.810;4.712;2023-08-30T05:21:42;13.18;;;9.60;;
46551;SDS011;32278;51.810;4.712;2023-08-30T05:24:08;16.50;;;9.88;;
46551;SDS011;32278;51.810;4.712;2023-08-30T05:26:35;16.52;;;9.93;;
46551;SDS011;32278;51.810;4.712;2023-08-30T05:29:02;20.05;;;9.82;;
46551;SDS011;32278;51.810;4.712;2023-08-30T05:31:28;12.43;;;9.23;;
46551;SDS011;32278;51.810;4.712;2023-08-30T05:33:54;15.90;;;10.85;;
46551;SDS011;32278;51.810;4.712;2023-08-30T05:36:21;21.85;;;12.75;;
46551;SDS011;32278;51.810;4.712;2023-08-30T05:38:47;19.65;;;12.43;;
46551;SDS011;32278;51.810;4.712;2023-08-30T05:41:13;21.10;;;12.80;;
46551;SDS011;32278;51.810;4.712;2023-08-30T05:43:39;19.23;;;12.10;;
46551;SDS011;32278;51.810;4.712;2023-08-30T05:46:06;18.20;;;12.68;;
46551;SDS011;32278;51.810;4.712;2023-08-30T05:48:37;24.42;;;13.00;;
46551;SDS011;32278;51.810;4.712;2023-08-30T05:51:03;21.73;;;13.32;;
46551;SDS011;32278;51.810;4.712;2023-08-30T05:53:29;26.33;;;14.45;;
46551;SDS011;32278;51.810;4.712;2023-08-30T05:55:55;26.33;;;14.68;;
46551;SDS011;32278;51.810;4.712;2023-08-30T05:58:21;22.40;;;14.50;;
46551;SDS011;32278;51.810;4.712;2023-08-30T06:00:47;23.83;;;14.40;;
46551;SDS011;32278;51.810;4.712;2023-08-30T06:03:13;26.00;;;15.77;;
46551;SDS011;32278;51.810;4.712;2023-08-30T06:05:39;30.90;;;15.32;;
46551;SDS011;32278;51.810;4.712;2023-08-30T06:08:05;27.40;;;16.20;;
46551;SDS011;32278;51.810;4.712;2023-08-30T06:10:32;27.92;;;16.17;;
46551;SDS011;32278;51.810;4.712;2023-08-30T06:12:59;30.98;;;17.27;;
46551;SDS011;32278;51.810;4.712;2023-08-30T06:15:24;30.13;;;16.92;;
46551;SDS011;32278;51.810;4.712;2023-08-30T06:17:51;33.03;;;17.10;;
46551;SDS011;32278;51.810;4.712;2023-08-30T06:20:17;26.58;;;15.75;;
46551;SDS011;32278;51.810;4.712;2023-08-30T06:22:43;34.38;;;17.77;;
46551;SDS011;32278;51.810;4.712;2023-08-30T06:25:09;28.13;;;15.57;;
46551;SDS011;32278;51.810;4.712;2023-08-30T06:27:42;27.70;;;15.85;;
46551;SDS011;32278;51.810;4.712;2023-08-30T06:30:11;26.70;;;15.18;;
46551;SDS011;32278;51.810;4.712;2023-08-30T06:32:38;28.70;;;16.05;;
46551;SDS011;32278;51.810;4.712;2023-08-30T06:35:04;33.85;;;17.60;;
46551;SDS011;32278;51.810;4.712;2023-08-30T06:37:30;35.25;;;17.60;;
46551;SDS011;32278;51.810;4.712;2023-08-30T06:39:56;24.42;;;14.50;;
46551;SDS011;32278;51.810;4.712;2023-08-30T06:42:22;34.53;;;16.90;;
46551;SDS011;32278;51.810;4.712;2023-08-30T06:44:49;27.85;;;15.10;;
46551;SDS011;32278;51.810;4.712;2023-08-30T06:47:15;28.67;;;15.20;;
46551;SDS011;32278;51.810;4.712;2023-08-30T06:49:41;32.67;;;15.07;;
46551;SDS011;32278;51.810;4.712;2023-08-30T06:52:07;22.92;;;13.27;;
46551;SDS011;32278;51.810;4.712;2023-08-30T06:54:34;28.05;;;14.88;;
46551;SDS011;32278;51.810;4.712;2023-08-30T06:57:01;27.73;;;12.95;;
46551;SDS011;32278;51.810;4.712;2023-08-30T06:59:27;23.75;;;12.40;;
46551;SDS011;32278;51.810;4.712;2023-08-30T07:01:53;22.65;;;11.55;;
46551;SDS011;32278;51.810;4.712;2023-08-30T07:04:20;24.48;;;12.48;;
46551;SDS011;32278;51.810;4.712;2023-08-30T07:06:46;22.67;;;13.18;;
46551;SDS011;32278;51.810;4.712;2023-08-30T07:09:12;21.58;;;10.65;;
46551;SDS011;32278;51.810;4.712;2023-08-30T07:11:38;17.60;;;9.90;;
46551;SDS011;32278;51.810;4.712;2023-08-30T07:14:04;17.08;;;9.60;;
46551;SDS011;32278;51.810;4.712;2023-08-30T07:16:30;16.05;;;9.43;;
46551;SDS011;32278;51.810;4.712;2023-08-30T07:18:57;19.00;;;10.38;;
46551;SDS011;32278;51.810;4.712;2023-08-30T07:21:23;19.00;;;10.48;;
46551;SDS011;32278;51.810;4.712;2023-08-30T07:23:49;19.40;;;10.63;;
46551;SDS011;32278;51.810;4.712;2023-08-30T07:26:15;15.48;;;9.63;;
46551;SDS011;32278;51.810;4.712;2023-08-30T07:28:41;14.75;;;10.43;;
46551;SDS011;32278;51.810;4.712;2023-08-30T07:31:07;21.08;;;11.88;;
46551;SDS011;32278;51.810;4.712;2023-08-30T07:33:33;16.88;;;9.07;;
46551;SDS011;32278;51.810;4.712;2023-08-30T07:35:59;13.25;;;9.02;;
46551;SDS011;32278;51.810;4.712;2023-08-30T07:38:25;17.42;;;9.88;;
46551;SDS011;32278;51.810;4.712;2023-08-30T07:40:51;19.80;;;10.50;;
46551;SDS011;32278;51.810;4.712;2023-08-30T07:43:17;20.08;;;11.23;;
46551;SDS011;32278;51.810;4.712;2023-08-30T07:45:43;19.02;;;10.85;;
46551;SDS011;32278;51.810;4.712;2023-08-30T07:48:09;13.25;;;9.63;;
46551;SDS011;32278;51.810;4.712;2023-08-30T07:50:36;17.15;;;10.57;;
46551;SDS011;32278;51.810;4.712;2023-08-30T07:53:02;13.25;;;9.52;;
46551;SDS011;32278;51.810;4.712;2023-08-30T07:55:28;15.13;;;10.70;;
46551;SDS011;32278;51.810;4.712;2023-08-30T07:57:54;14.90;;;10.25;;
46551;SDS011;32278;51.810;4.712;2023-08-30T08:00:21;20.88;;;11.40;;
46551;SDS011;32278;51.810;4.712;2023-08-30T08:02:47;16.80;;;12.13;;
46551;SDS011;32278;51.810;4.712;2023-08-30T08:05:13;17.20;;;11.93;;
46551;SDS011;32278;51.810;4.712;2023-08-30T08:07:39;18.92;;;13.07;;
46551;SDS011;32278;51.810;4.712;2023-08-30T08:10:06;19.15;;;13.90;;
46551;SDS011;32278;51.810;4.712;2023-08-30T08:12:32;17.70;;;14.45;;
46551;SDS011;32278;51.810;4.712;2023-08-30T08:14:58;18.38;;;14.60;;
46551;SDS011;32278;51.810;4.712;2023-08-30T08:17:24;20.10;;;15.18;;
46551;SDS011;32278;51.810;4.712;2023-08-30T08:19:50;19.17;;;15.90;;
46551;SDS011;32278;51.810;4.712;2023-08-30T08:22:16;18.00;;;14.95;;
46551;SDS011;32278;51.810;4.712;2023-08-30T08:24:42;17.90;;;14.10;;
46551;SDS011;32278;51.810;4.712;2023-08-30T08:27:12;18.30;;;13.45;;
46551;SDS011;32278;51.810;4.712;2023-08-30T08:29:39;16.50;;;13.52;;
46551;SDS011;32278;51.810;4.712;2023-08-30T08:32:05;17.35;;;13.27;;
46551;SDS011;32278;51.810;4.712;2023-08-30T08:34:31;19.58;;;14.60;;
46551;SDS011;32278;51.810;4.712;2023-08-30T08:36:57;16.25;;;13.63;;
46551;SDS011;32278;51.810;4.712;2023-08-30T08:39:23;17.58;;;14.90;;
46551;SDS011;32278;51.810;4.712;2023-08-30T08:41:49;17.27;;;14.20;;
46551;SDS011;32278;51.810;4.712;2023-08-30T08:44:20;16.83;;;13.30;;
46551;SDS011;32278;51.810;4.712;2023-08-30T08:46:46;17.02;;;12.88;;
46551;SDS011;32278;51.810;4.712;2023-08-30T08:49:16;15.98;;;12.07;;
46551;SDS011;32278;51.810;4.712;2023-08-30T08:51:43;15.13;;;12.43;;
46551;SDS011;32278;51.810;4.712;2023-08-30T08:54:10;14.10;;;12.35;;
46551;SDS011;32278;51.810;4.712;2023-08-30T08:56:36;10.40;;;9.32;;
46551;SDS011;32278;51.810;4.712;2023-08-30T08:59:03;14.13;;;8.82;;
46551;SDS011;32278;51.810;4.712;2023-08-30T09:01:31;7.00;;;6.25;;
46551;SDS011;32278;51.810;4.712;2023-08-30T09:04:00;6.43;;;4.70;;
46551;SDS011;32278;51.810;4.712;2023-08-30T09:06:27;8.13;;;4.47;;
46551;SDS011;32278;51.810;4.712;2023-08-30T09:08:54;4.68;;;3.13;;
46551;SDS011;32278;51.810;4.712;2023-08-30T09:11:20;4.88;;;2.97;;
46551;SDS011;32278;51.810;4.712;2023-08-30T09:13:46;5.60;;;3.40;;
46551;SDS011;32278;51.810;4.712;2023-08-30T09:16:12;4.57;;;3.03;;
46551;SDS011;32278;51.810;4.712;2023-08-30T09:18:39;3.25;;;2.95;;
46551;SDS011;32278;51.810;4.712;2023-08-30T09:21:05;5.72;;;3.22;;
46551;SDS011;32278;51.810;4.712;2023-08-30T09:23:31;5.68;;;2.58;;
46551;SDS011;32278;51.810;4.712;2023-08-30T09:25:59;3.10;;;2.35;;
46551;SDS011;32278;51.810;4.712;2023-08-30T09:28:25;6.25;;;2.60;;
46551;SDS011;32278;51.810;4.712;2023-08-30T09:30:53;5.80;;;3.10;;
46551;SDS011;32278;51.810;4.712;2023-08-30T09:33:32;4.95;;;2.60;;
46551;SDS011;32278;51.810;4.712;2023-08-30T09:35:58;4.00;;;2.33;;
46551;SDS011;32278;51.810;4.712;2023-08-30T09:38:25;8.40;;;3.15;;
46551;SDS011;32278;51.810;4.712;2023-08-30T09:40:51;7.53;;;3.60;;
46551;SDS011;32278;51.810;4.712;2023-08-30T09:43:18;8.65;;;4.82;;
46551;SDS011;32278;51.810;4.712;2023-08-30T09:45:46;11.63;;;4.40;;
46551;SDS011;32278;51.810;4.712;2023-08-30T09:48:12;9.48;;;4.30;;
46551;SDS011;32278;51.810;4.712;2023-08-30T09:50:39;6.90;;;4.15;;
46551;SDS011;32278;51.810;4.712;2023-08-30T09:53:07;9.43;;;4.30;;
46551;SDS011;32278;51.810;4.712;2023-08-30T09:55:34;9.32;;;4.57;;
46551;SDS011;32278;51.810;4.712;2023-08-30T09:58:03;7.88;;;3.88;;
46551;SDS011;32278;51.810;4.712;2023-08-30T10:00:30;12.80;;;4.20;;
46551;SDS011;32278;51.810;4.712;2023-08-30T10:02:57;11.30;;;4.53;;
46551;SDS011;32278;51.810;4.712;2023-08-30T10:05:24;8.32;;;4.15;;
46551;SDS011;32278;51.810;4.712;2023-08-30T10:07:52;9.32;;;4.32;;
46551;SDS011;32278;51.810;4.712;2023-08-30T10:10:24;12.93;;;4.80;;
46551;SDS011;32278;51.810;4.712;2023-08-30T10:12:51;9.40;;;4.45;;
46551;SDS011;32278;51.810;4.712;2023-08-30T10:15:17;10.55;;;4.82;;
46551;SDS011;32278;51.810;4.712;2023-08-30T10:17:45;11.73;;;4.60;;
46551;SDS011;32278;51.810;4.712;2023-08-30T10:20:11;13.73;;;4.35;;
46551;SDS011;32278;51.810;4.712;2023-08-30T10:22:38;9.50;;;4.50;;
46551;SDS011;32278;51.810;4.712;2023-08-30T10:25:12;6.82;;;4.10;;
46551;SDS011;32278;51.810;4.712;2023-08-30T10:27:42;9.73;;;3.40;;
46551;SDS011;32278;51.810;4.712;2023-08-30T10:30:09;10.63;;;4.10;;
46551;SDS011;32278;51.810;4.712;2023-08-30T10:32:40;10.50;;;3.58;;
46551;SDS011;32278;51.810;4.712;2023-08-30T10:35:06;9.68;;;3.35;;
46551;SDS011;32278;51.810;4.712;2023-08-30T10:37:32;9.52;;;3.13;;
46551;SDS011;32278;51.810;4.712;2023-08-30T10:40:00;8.50;;;2.53;;
46551;SDS011;32278;51.810;4.712;2023-08-30T10:42:29;7.13;;;2.42;;
46551;SDS011;32278;51.810;4.712;2023-08-30T10:44:59;10.63;;;2.50;;
46551;SDS011;32278;51.810;4.712;2023-08-30T10:47:28;11.20;;;2.50;;
46551;SDS011;32278;51.810;4.712;2023-08-30T10:49:55;5.90;;;2.47;;
46551;SDS011;32278;51.810;4.712;2023-08-30T10:52:21;5.78;;;2.80;;
46551;SDS011;32278;51.810;4.712;2023-08-30T10:54:48;7.95;;;2.80;;
46551;SDS011;32278;51.810;4.712;2023-08-30T10:57:17;11.18;;;2.78;;
46551;SDS011;32278;51.810;4.712;2023-08-30T11:02:29;12.30;;;2.83;;
46551;SDS011;32278;51.810;4.712;2023-08-30T11:04:55;8.73;;;3.22;;
46551;SDS011;32278;51.810;4.712;2023-08-30T11:07:24;16.77;;;3.80;;
46551;SDS011;32278;51.810;4.712;2023-08-30T11:09:51;11.15;;;3.78;;
46551;SDS011;32278;51.810;4.712;2023-08-30T11:12:17;12.00;;;4.18;;
46551;SDS011;32278;51.810;4.712;2023-08-30T11:14:43;9.27;;;2.75;;
46551;SDS011;32278;51.810;4.712;2023-08-30T11:17:10;9.95;;;3.42;;
46551;SDS011;32278;51.810;4.712;2023-08-30T11:19:36;9.95;;;2.80;;
46551;SDS011;32278;51.810;4.712;2023-08-30T11:22:02;12.43;;;2.47;;
46551;SDS011;32278;51.810;4.712;2023-08-30T11:24:28;11.52;;;2.70;;
46551;SDS011;32278;51.810;4.712;2023-08-30T11:26:54;11.25;;;3.55;;
46551;SDS011;32278;51.810;4.712;2023-08-30T11:29:20;10.63;;;2.58;;
46551;SDS011;32278;51.810;4.712;2023-08-30T11:31:46;6.60;;;2.15;;
46551;SDS011;32278;51.810;4.712;2023-08-30T11:34:12;10.07;;;2.97;;
46551;SDS011;32278;51.810;4.712;2023-08-30T11:36:38;10.60;;;2.58;;
46551;SDS011;32278;51.810;4.712;2023-08-30T11:39:04;7.43;;;2.45;;
46551;SDS011;32278;51.810;4.712;2023-08-30T11:41:32;10.07;;;2.35;;
46551;SDS011;32278;51.810;4.712;2023-08-30T11:43:58;5.22;;;1.77;;
46551;SDS011;32278;51.810;4.712;2023-08-30T11:46:25;11.90;;;2.22;;
46551;SDS011;32278;51.810;4.712;2023-08-30T11:48:51;7.10;;;1.83;;
46551;SDS011;32278;51.810;4.712;2023-08-30T11:51:17;8.20;;;2.47;;
46551;SDS011;32278;51.810;4.712;2023-08-30T11:53:44;8.77;;;2.33;;
46551;SDS011;32278;51.810;4.712;2023-08-30T11:56:11;5.43;;;1.98;;
46551;SDS011;32278;51.810;4.712;2023-08-30T11:58:37;6.65;;;2.30;;
46551;SDS011;32278;51.810;4.712;2023-08-30T12:01:03;5.72;;;2.38;;
46551;SDS011;32278;51.810;4.712;2023-08-30T12:03:30;8.05;;;2.30;;
46551;SDS011;32278;51.810;4.712;2023-08-30T12:05:56;7.80;;;2.75;;
46551;SDS011;32278;51.810;4.712;2023-08-30T12:08:24;6.82;;;2.17;;
46551;SDS011;32278;51.810;4.712;2023-08-30T12:10:50;10.38;;;2.30;;
46551;SDS011;32278;51.810;4.712;2023-08-30T12:15:48;8.15;;;2.33;;
46551;SDS011;32278;51.810;4.712;2023-08-30T12:18:14;8.73;;;1.60;;
46551;SDS011;32278;51.810;4.712;2023-08-30T12:20:50;9.43;;;2.53;;
46551;SDS011;32278;51.810;4.712;2023-08-30T12:23:21;7.53;;;2.47;;
46551;SDS011;32278;51.810;4.712;2023-08-30T12:26:03;8.02;;;2.08;;
46551;SDS011;32278;51.810;4.712;2023-08-30T12:28:30;7.35;;;1.98;;
46551;SDS011;32278;51.810;4.712;2023-08-30T12:30:56;5.88;;;1.55;;
46551;SDS011;32278;51.810;4.712;2023-08-30T12:33:24;6.65;;;2.10;;
46551;SDS011;32278;51.810;4.712;2023-08-30T12:35:53;7.07;;;2.08;;
46551;SDS011;32278;51.810;4.712;2023-08-30T12:38:19;5.95;;;2.15;;
46551;SDS011;32278;51.810;4.712;2023-08-30T12:40:46;9.82;;;1.73;;
46551;SDS011;32278;51.810;4.712;2023-08-30T12:43:12;9.98;;;2.35;;
46551;SDS011;32278;51.810;4.712;2023-08-30T12:45:39;7.10;;;1.60;;
46551;SDS011;32278;51.810;4.712;2023-08-30T12:48:06;10.15;;;2.33;;
46551;SDS011;32278;51.810;4.712;2023-08-30T12:50:32;6.57;;;2.05;;
46551;SDS011;32278;51.810;4.712;2023-08-30T12:52:58;9.80;;;1.88;;
46551;SDS011;32278;51.810;4.712;2023-08-30T12:55:24;3.65;;;1.50;;
46551;SDS011;32278;51.810;4.712;2023-08-30T12:57:50;6.50;;;1.35;;
46551;SDS011;32278;51.810;4.712;2023-08-30T13:00:16;6.60;;;1.85;;
46551;SDS011;32278;51.810;4.712;2023-08-30T13:02:42;6.20;;;1.98;;
46551;SDS011;32278;51.810;4.712;2023-08-30T13:05:08;7.45;;;1.63;;
46551;SDS011;32278;51.810;4.712;2023-08-30T13:07:33;3.33;;;1.30;;
46551;SDS011;32278;51.810;4.712;2023-08-30T13:09:59;8.50;;;2.53;;
46551;SDS011;32278;51.810;4.712;2023-08-30T13:12:25;6.95;;;1.77;;
46551;SDS011;32278;51.810;4.712;2023-08-30T13:14:51;5.25;;;2.28;;
46551;SDS011;32278;51.810;4.712;2023-08-30T13:17:17;9.90;;;2.05;;
46551;SDS011;32278;51.810;4.712;2023-08-30T13:19:43;9.88;;;1.73;;
46551;SDS011;32278;51.810;4.712;2023-08-30T13:22:09;6.47;;;1.65;;
46551;SDS011;32278;51.810;4.712;2023-08-30T13:24:36;6.60;;;1.92;;
46551;SDS011;32278;51.810;4.712;2023-08-30T13:27:02;4.88;;;1.63;;
46551;SDS011;32278;51.810;4.712;2023-08-30T13:29:28;7.35;;;2.58;;
46551;SDS011;32278;51.810;4.712;2023-08-30T13:31:54;4.85;;;1.40;;
46551;SDS011;32278;51.810;4.712;2023-08-30T13:34:20;8.13;;;1.83;;
46551;SDS011;32278;51.810;4.712;2023-08-30T13:36:46;7.60;;;1.88;;
46551;SDS011;32278;51.810;4.712;2023-08-30T13:39:12;9.77;;;1.52;;
46551;SDS011;32278;51.810;4.712;2023-08-30T13:41:39;8.88;;;1.70;;
46551;SDS011;32278;51.810;4.712;2023-08-30T13:44:05;4.72;;;1.38;;
46551;SDS011;32278;51.810;4.712;2023-08-30T13:46:31;6.80;;;1.88;;
46551;SDS011;32278;51.810;4.712;2023-08-30T13:48:57;5.50;;;1.80;;
46551;SDS011;32278;51.810;4.712;2023-08-30T13:51:24;4.82;;;1.42;;
46551;SDS011;32278;51.810;4.712;2023-08-30T13:53:51;4.93;;;2.35;;
46551;SDS011;32278;51.810;4.712;2023-08-30T13:56:17;4.25;;;1.50;;
46551;SDS011;32278;51.810;4.712;2023-08-30T13:58:43;9.15;;;2.60;;
46551;SDS011;32278;51.810;4.712;2023-08-30T14:01:10;6.32;;;1.92;;
46551;SDS011;32278;51.810;4.712;2023-08-30T14:03:35;4.22;;;1.67;;
46551;SDS011;32278;51.810;4.712;2023-08-30T14:06:01;8.20;;;1.92;;
46551;SDS011;32278;51.810;4.712;2023-08-30T14:08:27;8.80;;;1.80;;
46551;SDS011;32278;51.810;4.712;2023-08-30T14:10:57;6.10;;;1.55;;
46551;SDS011;32278;51.810;4.712;2023-08-30T14:13:23;9.70;;;2.20;;
46551;SDS011;32278;51.810;4.712;2023-08-30T14:15:49;6.00;;;1.77;;
46551;SDS011;32278;51.810;4.712;2023-08-30T14:18:15;9.57;;;2.50;;
46551;SDS011;32278;51.810;4.712;2023-08-30T14:20:42;12.80;;;2.20;;
46551;SDS011;32278;51.810;4.712;2023-08-30T14:23:08;5.13;;;1.48;;
46551;SDS011;32278;51.810;4.712;2023-08-30T14:25:34;9.10;;;1.60;;
46551;SDS011;32278;51.810;4.712;2023-08-30T14:28:01;8.90;;;2.08;;
46551;SDS011;32278;51.810;4.712;2023-08-30T14:30:28;7.35;;;1.50;;
46551;SDS011;32278;51.810;4.712;2023-08-30T14:32:54;6.95;;;1.52;;
46551;SDS011;32278;51.810;4.712;2023-08-30T14:35:20;4.25;;;1.50;;
46551;SDS011;32278;51.810;4.712;2023-08-30T14:37:48;8.45;;;1.23;;